sensor_id;sensor_type;location;lat;lon;timestamp;P1;durP1;ratioP1;P2;durP2;ratioP2
64633;SDS011;51043;52.406;9.690;2023-10-31T00:00:26;8.43;;;3.30;;
64633;SDS011;51043;52.406;9.690;2023-10-31T00:02:54;5.87;;;3.27;;
64633;SDS011;51043;52.406;9.690;2023-10-31T00:05:25;8.43;;;3.40;;
64633;SDS011;51043;52.406;9.690;2023-10-31T00:07:56;7.63;;;3.10;;
64633;SDS011;51043;52.406;9.690;2023-10-31T00:10:27;8.00;;;3.20;;
64633;SDS011;51043;52.406;9.690;2023-10-31T00:12:55;5.93;;;2.97;;
64633;SDS011;51043;52.406;9.690;2023-10-31T00:15:26;5.80;;;2.97;;
64633;SDS011;51043;52.406;9.690;2023-10-31T00:17:55;5.40;;;3.10;;
64633;SDS011;51043;52.406;9.690;2023-10-31T00:20:26;7.33;;;3.10;;
64633;SDS011;51043;52.406;9.690;2023-10-31T00:22:57;5.77;;;3.20;;
64633;SDS011;51043;52.406;9.690;2023-10-31T00:25:35;6.03;;;2.87;;
64633;SDS011;51043;52.406;9.690;2023-10-31T00:28:06;8.83;;;3.03;;
64633;SDS011;51043;52.406;9.690;2023-10-31T00:30:34;8.53;;;3.20;;
64633;SDS011;51043;52.406;9.690;2023-10-31T00:33:02;7.10;;;3.27;;
64633;SDS011;51043;52.406;9.690;2023-10-31T00:35:32;7.90;;;2.90;;
64633;SDS011;51043;52.406;9.690;2023-10-31T00:38:03;7.60;;;3.30;;
64633;SDS011;51043;52.406;9.690;2023-10-31T00:40:31;4.87;;;3.43;;
64633;SDS011;51043;52.406;9.690;2023-10-31T00:43:00;6.93;;;3.50;;
64633;SDS011;51043;52.406;9.690;2023-10-31T00:45:28;8.13;;;3.50;;
64633;SDS011;51043;52.406;9.690;2023-10-31T00:48:05;7.90;;;3.30;;
64633;SDS011;51043;52.406;9.690;2023-10-31T00:50:38;6.20;;;3.77;;
64633;SDS011;51043;52.406;9.690;2023-10-31T00:53:06;10.80;;;3.67;;
64633;SDS011;51043;52.406;9.690;2023-10-31T00:55:34;7.77;;;3.70;;
64633;SDS011;51043;52.406;9.690;2023-10-31T00:58:04;6.83;;;3.47;;
64633;SDS011;51043;52.406;9.690;2023-10-31T01:00:32;7.37;;;3.33;;
64633;SDS011;51043;52.406;9.690;2023-10-31T01:03:03;7.00;;;3.50;;
64633;SDS011;51043;52.406;9.690;2023-10-31T01:05:31;8.93;;;3.53;;
64633;SDS011;51043;52.406;9.690;2023-10-31T01:08:03;5.73;;;3.60;;
64633;SDS011;51043;52.406;9.690;2023-10-31T01:10:33;8.23;;;3.73;;
64633;SDS011;51043;52.406;9.690;2023-10-31T01:13:08;6.80;;;3.50;;
64633;SDS011;51043;52.406;9.690;2023-10-31T01:15:36;8.30;;;3.70;;
64633;SDS011;51043;52.406;9.690;2023-10-31T01:18:05;6.30;;;3.90;;
64633;SDS011;51043;52.406;9.690;2023-10-31T01:20:36;9.87;;;3.40;;
64633;SDS011;51043;52.406;9.690;2023-10-31T01:23:06;7.60;;;4.17;;
64633;SDS011;51043;52.406;9.690;2023-10-31T01:25:34;7.47;;;3.83;;
64633;SDS011;51043;52.406;9.690;2023-10-31T01:28:02;8.43;;;3.90;;
64633;SDS011;51043;52.406;9.690;2023-10-31T01:30:31;6.90;;;3.60;;
64633;SDS011;51043;52.406;9.690;2023-10-31T01:33:00;6.13;;;4.03;;
64633;SDS011;51043;52.406;9.690;2023-10-31T01:35:28;12.63;;;4.13;;
64633;SDS011;51043;52.406;9.690;2023-10-31T01:37:56;7.17;;;3.80;;
64633;SDS011;51043;52.406;9.690;2023-10-31T01:40:32;9.20;;;3.90;;
64633;SDS011;51043;52.406;9.690;2023-10-31T01:43:05;6.87;;;3.97;;
64633;SDS011;51043;52.406;9.690;2023-10-31T01:45:34;5.23;;;3.60;;
64633;SDS011;51043;52.406;9.690;2023-10-31T01:48:02;5.40;;;3.60;;
64633;SDS011;51043;52.406;9.690;2023-10-31T01:50:31;8.53;;;3.63;;
64633;SDS011;51043;52.406;9.690;2023-10-31T01:53:02;5.87;;;3.00;;
64633;SDS011;51043;52.406;9.690;2023-10-31T01:55:32;8.63;;;3.60;;
64633;SDS011;51043;52.406;9.690;2023-10-31T01:58:01;7.57;;;3.77;;
64633;SDS011;51043;52.406;9.690;2023-10-31T02:00:31;6.33;;;3.47;;
64633;SDS011;51043;52.406;9.690;2023-10-31T02:03:00;7.40;;;3.40;;
64633;SDS011;51043;52.406;9.690;2023-10-31T02:05:31;6.20;;;3.50;;
64633;SDS011;51043;52.406;9.690;2023-10-31T02:08:02;11.40;;;3.97;;
64633;SDS011;51043;52.406;9.690;2023-10-31T02:10:32;6.33;;;4.10;;
64633;SDS011;51043;52.406;9.690;2023-10-31T02:13:09;5.73;;;3.63;;
64633;SDS011;51043;52.406;9.690;2023-10-31T02:15:41;7.17;;;3.70;;
64633;SDS011;51043;52.406;9.690;2023-10-31T02:18:11;5.20;;;3.53;;
64633;SDS011;51043;52.406;9.690;2023-10-31T02:20:40;4.83;;;3.57;;
64633;SDS011;51043;52.406;9.690;2023-10-31T02:23:10;7.33;;;3.80;;
64633;SDS011;51043;52.406;9.690;2023-10-31T02:25:38;9.03;;;3.70;;
64633;SDS011;51043;52.406;9.690;2023-10-31T02:28:10;7.73;;;3.90;;
64633;SDS011;51043;52.406;9.690;2023-10-31T02:30:38;6.03;;;3.50;;
64633;SDS011;51043;52.406;9.690;2023-10-31T02:33:08;4.83;;;3.30;;
64633;SDS011;51043;52.406;9.690;2023-10-31T02:35:36;6.13;;;3.27;;
64633;SDS011;51043;52.406;9.690;2023-10-31T02:38:05;6.67;;;3.40;;
64633;SDS011;51043;52.406;9.690;2023-10-31T02:40:38;6.27;;;3.40;;
64633;SDS011;51043;52.406;9.690;2023-10-31T02:43:06;9.83;;;3.30;;
64633;SDS011;51043;52.406;9.690;2023-10-31T02:45:35;4.67;;;3.27;;
64633;SDS011;51043;52.406;9.690;2023-10-31T02:48:07;6.30;;;4.00;;
64633;SDS011;51043;52.406;9.690;2023-10-31T02:50:38;11.50;;;3.47;;
64633;SDS011;51043;52.406;9.690;2023-10-31T02:53:07;7.50;;;3.70;;
64633;SDS011;51043;52.406;9.690;2023-10-31T02:55:36;7.27;;;3.50;;
64633;SDS011;51043;52.406;9.690;2023-10-31T02:58:07;14.47;;;3.80;;
64633;SDS011;51043;52.406;9.690;2023-10-31T03:00:41;4.73;;;3.40;;
64633;SDS011;51043;52.406;9.690;2023-10-31T03:03:10;6.90;;;3.70;;
64633;SDS011;51043;52.406;9.690;2023-10-31T03:05:40;6.43;;;3.50;;
64633;SDS011;51043;52.406;9.690;2023-10-31T03:08:10;5.07;;;3.37;;
64633;SDS011;51043;52.406;9.690;2023-10-31T03:10:41;6.80;;;4.07;;
64633;SDS011;51043;52.406;9.690;2023-10-31T03:13:09;3.90;;;3.07;;
64633;SDS011;51043;52.406;9.690;2023-10-31T03:15:38;5.07;;;3.27;;
64633;SDS011;51043;52.406;9.690;2023-10-31T03:18:08;4.83;;;3.23;;
64633;SDS011;51043;52.406;9.690;2023-10-31T03:20:37;4.27;;;2.80;;
64633;SDS011;51043;52.406;9.690;2023-10-31T03:23:05;7.03;;;3.00;;
64633;SDS011;51043;52.406;9.690;2023-10-31T03:25:33;3.63;;;2.70;;
64633;SDS011;51043;52.406;9.690;2023-10-31T03:28:07;3.33;;;2.90;;
64633;SDS011;51043;52.406;9.690;2023-10-31T03:30:49;5.23;;;2.97;;
64633;SDS011;51043;52.406;9.690;2023-10-31T03:33:18;5.03;;;2.53;;
64633;SDS011;51043;52.406;9.690;2023-10-31T03:36:10;3.37;;;2.30;;
64633;SDS011;51043;52.406;9.690;2023-10-31T03:38:42;5.10;;;2.40;;
64633;SDS011;51043;52.406;9.690;2023-10-31T03:41:10;2.43;;;2.20;;
64633;SDS011;51043;52.406;9.690;2023-10-31T03:43:41;2.37;;;2.17;;
64633;SDS011;51043;52.406;9.690;2023-10-31T03:46:09;2.07;;;1.97;;
64633;SDS011;51043;52.406;9.690;2023-10-31T03:48:47;2.87;;;2.57;;
64633;SDS011;51043;52.406;9.690;2023-10-31T03:51:22;3.20;;;2.70;;
64633;SDS011;51043;52.406;9.690;2023-10-31T03:53:52;2.73;;;2.53;;
64633;SDS011;51043;52.406;9.690;2023-10-31T03:56:22;3.77;;;2.70;;
64633;SDS011;51043;52.406;9.690;2023-10-31T03:58:57;3.43;;;2.53;;
64633;SDS011;51043;52.406;9.690;2023-10-31T04:01:49;2.73;;;1.60;;
64633;SDS011;51043;52.406;9.690;2023-10-31T04:04:17;4.77;;;2.50;;
64633;SDS011;51043;52.406;9.690;2023-10-31T04:06:45;4.97;;;2.37;;
64633;SDS011;51043;52.406;9.690;2023-10-31T04:09:14;3.03;;;2.27;;
64633;SDS011;51043;52.406;9.690;2023-10-31T04:11:43;1.70;;;1.60;;
64633;SDS011;51043;52.406;9.690;2023-10-31T04:14:13;4.13;;;1.60;;
64633;SDS011;51043;52.406;9.690;2023-10-31T04:16:41;1.50;;;1.40;;
64633;SDS011;51043;52.406;9.690;2023-10-31T04:19:12;2.10;;;1.33;;
64633;SDS011;51043;52.406;9.690;2023-10-31T04:21:40;4.27;;;1.70;;
64633;SDS011;51043;52.406;9.690;2023-10-31T04:24:09;2.07;;;1.50;;
64633;SDS011;51043;52.406;9.690;2023-10-31T04:26:37;2.30;;;1.30;;
64633;SDS011;51043;52.406;9.690;2023-10-31T04:29:07;1.63;;;1.23;;
64633;SDS011;51043;52.406;9.690;2023-10-31T04:31:36;3.77;;;1.30;;
64633;SDS011;51043;52.406;9.690;2023-10-31T04:34:07;1.10;;;1.10;;
64633;SDS011;51043;52.406;9.690;2023-10-31T04:36:36;1.10;;;1.10;;
64633;SDS011;51043;52.406;9.690;2023-10-31T04:39:04;2.70;;;1.00;;
64633;SDS011;51043;52.406;9.690;2023-10-31T04:41:34;7.20;;;1.30;;
64633;SDS011;51043;52.406;9.690;2023-10-31T04:44:05;1.13;;;1.00;;
64633;SDS011;51043;52.406;9.690;2023-10-31T04:46:33;2.30;;;0.90;;
64633;SDS011;51043;52.406;9.690;2023-10-31T04:49:07;1.13;;;0.80;;
64633;SDS011;51043;52.406;9.690;2023-10-31T04:51:36;0.67;;;0.60;;
64633;SDS011;51043;52.406;9.690;2023-10-31T04:54:08;2.83;;;0.70;;
64633;SDS011;51043;52.406;9.690;2023-10-31T04:56:36;1.10;;;0.67;;
64633;SDS011;51043;52.406;9.690;2023-10-31T04:59:07;0.50;;;0.50;;
64633;SDS011;51043;52.406;9.690;2023-10-31T05:01:36;6.77;;;0.87;;
64633;SDS011;51043;52.406;9.690;2023-10-31T05:04:09;0.70;;;0.60;;
64633;SDS011;51043;52.406;9.690;2023-10-31T05:06:38;0.50;;;0.50;;
64633;SDS011;51043;52.406;9.690;2023-10-31T05:09:08;1.97;;;0.60;;
64633;SDS011;51043;52.406;9.690;2023-10-31T05:11:42;1.07;;;0.60;;
64633;SDS011;51043;52.406;9.690;2023-10-31T05:14:10;0.50;;;0.50;;
64633;SDS011;51043;52.406;9.690;2023-10-31T05:16:41;0.47;;;0.47;;
64633;SDS011;51043;52.406;9.690;2023-10-31T05:19:11;0.60;;;0.60;;
64633;SDS011;51043;52.406;9.690;2023-10-31T05:21:41;1.83;;;0.90;;
64633;SDS011;51043;52.406;9.690;2023-10-31T05:24:09;0.40;;;0.40;;
64633;SDS011;51043;52.406;9.690;2023-10-31T05:26:38;1.83;;;1.00;;
64633;SDS011;51043;52.406;9.690;2023-10-31T05:29:08;0.97;;;0.57;;
64633;SDS011;51043;52.406;9.690;2023-10-31T05:31:40;0.50;;;0.50;;
64633;SDS011;51043;52.406;9.690;2023-10-31T05:34:13;1.03;;;0.70;;
64633;SDS011;51043;52.406;9.690;2023-10-31T05:36:42;0.47;;;0.47;;
64633;SDS011;51043;52.406;9.690;2023-10-31T05:39:13;0.87;;;0.60;;
64633;SDS011;51043;52.406;9.690;2023-10-31T05:41:46;0.80;;;0.80;;
64633;SDS011;51043;52.406;9.690;2023-10-31T05:44:14;0.50;;;0.50;;
64633;SDS011;51043;52.406;9.690;2023-10-31T05:46:43;0.77;;;0.73;;
64633;SDS011;51043;52.406;9.690;2023-10-31T05:49:12;0.70;;;0.70;;
64633;SDS011;51043;52.406;9.690;2023-10-31T05:51:40;0.87;;;0.63;;
64633;SDS011;51043;52.406;9.690;2023-10-31T05:54:10;1.77;;;0.93;;
64633;SDS011;51043;52.406;9.690;2023-10-31T05:56:38;2.90;;;0.90;;
64633;SDS011;51043;52.406;9.690;2023-10-31T05:59:06;1.40;;;0.90;;
64633;SDS011;51043;52.406;9.690;2023-10-31T06:01:35;4.30;;;0.90;;
64633;SDS011;51043;52.406;9.690;2023-10-31T06:04:02;2.33;;;0.80;;
64633;SDS011;51043;52.406;9.690;2023-10-31T06:06:38;0.70;;;0.70;;
64633;SDS011;51043;52.406;9.690;2023-10-31T06:09:07;2.60;;;1.20;;
64633;SDS011;51043;52.406;9.690;2023-10-31T06:11:39;1.73;;;1.00;;
64633;SDS011;51043;52.406;9.690;2023-10-31T06:14:08;2.40;;;0.87;;
64633;SDS011;51043;52.406;9.690;2023-10-31T06:16:40;1.47;;;0.90;;
64633;SDS011;51043;52.406;9.690;2023-10-31T06:19:09;0.90;;;0.90;;
64633;SDS011;51043;52.406;9.690;2023-10-31T06:21:39;2.70;;;1.43;;
64633;SDS011;51043;52.406;9.690;2023-10-31T06:24:09;2.87;;;1.37;;
64633;SDS011;51043;52.406;9.690;2023-10-31T06:26:37;3.80;;;1.40;;
64633;SDS011;51043;52.406;9.690;2023-10-31T06:29:06;3.60;;;1.60;;
64633;SDS011;51043;52.406;9.690;2023-10-31T06:31:48;1.17;;;0.97;;
64633;SDS011;51043;52.406;9.690;2023-10-31T06:34:16;4.70;;;1.30;;
64633;SDS011;51043;52.406;9.690;2023-10-31T06:36:47;1.70;;;1.17;;
64633;SDS011;51043;52.406;9.690;2023-10-31T06:39:15;4.40;;;1.90;;
64633;SDS011;51043;52.406;9.690;2023-10-31T06:41:47;1.73;;;1.37;;
64633;SDS011;51043;52.406;9.690;2023-10-31T06:44:15;3.30;;;1.83;;
64633;SDS011;51043;52.406;9.690;2023-10-31T06:46:43;1.40;;;1.23;;
64633;SDS011;51043;52.406;9.690;2023-10-31T06:49:12;5.60;;;2.13;;
64633;SDS011;51043;52.406;9.690;2023-10-31T06:51:40;7.00;;;2.20;;
64633;SDS011;51043;52.406;9.690;2023-10-31T06:54:10;3.17;;;1.80;;
64633;SDS011;51043;52.406;9.690;2023-10-31T06:56:39;2.23;;;1.60;;
64633;SDS011;51043;52.406;9.690;2023-10-31T06:59:15;2.30;;;1.70;;
64633;SDS011;51043;52.406;9.690;2023-10-31T07:01:44;3.37;;;2.00;;
64633;SDS011;51043;52.406;9.690;2023-10-31T07:04:13;2.57;;;1.60;;
64633;SDS011;51043;52.406;9.690;2023-10-31T07:06:43;9.60;;;2.40;;
64633;SDS011;51043;52.406;9.690;2023-10-31T07:09:14;5.30;;;2.10;;
64633;SDS011;51043;52.406;9.690;2023-10-31T07:11:44;5.23;;;2.37;;
64633;SDS011;51043;52.406;9.690;2023-10-31T07:14:14;3.70;;;1.93;;
64633;SDS011;51043;52.406;9.690;2023-10-31T07:16:43;6.37;;;2.40;;
64633;SDS011;51043;52.406;9.690;2023-10-31T07:19:19;2.73;;;2.10;;
64633;SDS011;51043;52.406;9.690;2023-10-31T07:21:47;4.33;;;2.20;;
64633;SDS011;51043;52.406;9.690;2023-10-31T07:24:17;2.67;;;2.10;;
64633;SDS011;51043;52.406;9.690;2023-10-31T07:26:48;7.20;;;2.20;;
64633;SDS011;51043;52.406;9.690;2023-10-31T07:29:15;2.00;;;1.77;;
64633;SDS011;51043;52.406;9.690;2023-10-31T07:31:44;2.50;;;1.80;;
64633;SDS011;51043;52.406;9.690;2023-10-31T07:34:13;2.77;;;1.63;;
64633;SDS011;51043;52.406;9.690;2023-10-31T07:36:42;7.83;;;2.17;;
64633;SDS011;51043;52.406;9.690;2023-10-31T07:39:13;3.47;;;1.57;;
64633;SDS011;51043;52.406;9.690;2023-10-31T07:41:42;5.00;;;1.90;;
64633;SDS011;51043;52.406;9.690;2023-10-31T07:44:11;2.57;;;1.90;;
64633;SDS011;51043;52.406;9.690;2023-10-31T07:46:39;2.20;;;1.60;;
64633;SDS011;51043;52.406;9.690;2023-10-31T07:49:11;2.83;;;1.73;;
64633;SDS011;51043;52.406;9.690;2023-10-31T07:51:40;3.43;;;1.83;;
64633;SDS011;51043;52.406;9.690;2023-10-31T07:54:09;2.03;;;1.63;;
64633;SDS011;51043;52.406;9.690;2023-10-31T07:56:43;4.40;;;1.97;;
64633;SDS011;51043;52.406;9.690;2023-10-31T07:59:14;2.53;;;1.73;;
64633;SDS011;51043;52.406;9.690;2023-10-31T08:01:43;6.70;;;2.20;;
64633;SDS011;51043;52.406;9.690;2023-10-31T08:04:12;2.80;;;1.63;;
64633;SDS011;51043;52.406;9.690;2023-10-31T08:06:41;1.90;;;1.70;;
64633;SDS011;51043;52.406;9.690;2023-10-31T08:09:11;2.43;;;1.90;;
64633;SDS011;51043;52.406;9.690;2023-10-31T08:11:44;2.80;;;1.63;;
64633;SDS011;51043;52.406;9.690;2023-10-31T08:14:14;3.83;;;1.70;;
64633;SDS011;51043;52.406;9.690;2023-10-31T08:16:44;4.70;;;1.47;;
64633;SDS011;51043;52.406;9.690;2023-10-31T08:19:13;2.63;;;1.47;;
64633;SDS011;51043;52.406;9.690;2023-10-31T08:21:43;2.43;;;1.50;;
64633;SDS011;51043;52.406;9.690;2023-10-31T08:24:12;3.50;;;1.57;;
64633;SDS011;51043;52.406;9.690;2023-10-31T08:26:49;2.03;;;1.50;;
64633;SDS011;51043;52.406;9.690;2023-10-31T08:29:17;3.40;;;1.50;;
64633;SDS011;51043;52.406;9.690;2023-10-31T08:31:46;2.80;;;1.30;;
64633;SDS011;51043;52.406;9.690;2023-10-31T08:34:15;2.13;;;1.70;;
64633;SDS011;51043;52.406;9.690;2023-10-31T08:36:46;2.13;;;1.37;;
64633;SDS011;51043;52.406;9.690;2023-10-31T08:39:15;1.90;;;1.60;;
64633;SDS011;51043;52.406;9.690;2023-10-31T08:41:51;2.20;;;1.33;;
64633;SDS011;51043;52.406;9.690;2023-10-31T08:44:20;2.97;;;1.40;;
64633;SDS011;51043;52.406;9.690;2023-10-31T08:46:48;3.80;;;1.50;;
64633;SDS011;51043;52.406;9.690;2023-10-31T08:49:17;1.53;;;1.20;;
64633;SDS011;51043;52.406;9.690;2023-10-31T08:51:45;3.20;;;1.20;;
64633;SDS011;51043;52.406;9.690;2023-10-31T08:54:16;2.30;;;1.33;;
64633;SDS011;51043;52.406;9.690;2023-10-31T08:56:46;2.63;;;1.13;;
64633;SDS011;51043;52.406;9.690;2023-10-31T08:59:16;2.23;;;0.90;;
64633;SDS011;51043;52.406;9.690;2023-10-31T09:01:47;2.07;;;1.07;;
64633;SDS011;51043;52.406;9.690;2023-10-31T09:04:19;1.17;;;1.03;;
64633;SDS011;51043;52.406;9.690;2023-10-31T09:06:48;1.60;;;1.20;;
64633;SDS011;51043;52.406;9.690;2023-10-31T09:09:16;1.40;;;1.10;;
64633;SDS011;51043;52.406;9.690;2023-10-31T09:11:45;1.47;;;1.20;;
64633;SDS011;51043;52.406;9.690;2023-10-31T09:14:25;2.20;;;1.33;;
64633;SDS011;51043;52.406;9.690;2023-10-31T09:16:53;2.67;;;0.90;;
64633;SDS011;51043;52.406;9.690;2023-10-31T09:19:21;0.77;;;0.77;;
64633;SDS011;51043;52.406;9.690;2023-10-31T09:21:50;2.63;;;1.10;;
64633;SDS011;51043;52.406;9.690;2023-10-31T09:24:20;1.57;;;1.00;;
64633;SDS011;51043;52.406;9.690;2023-10-31T09:26:49;1.70;;;1.17;;
64633;SDS011;51043;52.406;9.690;2023-10-31T09:29:17;1.80;;;1.23;;
64633;SDS011;51043;52.406;9.690;2023-10-31T09:31:49;1.73;;;1.10;;
64633;SDS011;51043;52.406;9.690;2023-10-31T09:34:18;1.20;;;1.07;;
64633;SDS011;51043;52.406;9.690;2023-10-31T09:36:46;1.30;;;1.20;;
64633;SDS011;51043;52.406;9.690;2023-10-31T09:39:15;0.70;;;0.70;;
64633;SDS011;51043;52.406;9.690;2023-10-31T09:41:47;1.30;;;1.10;;
64633;SDS011;51043;52.406;9.690;2023-10-31T09:44:17;1.03;;;0.90;;
64633;SDS011;51043;52.406;9.690;2023-10-31T09:46:51;1.13;;;0.80;;
64633;SDS011;51043;52.406;9.690;2023-10-31T09:49:22;0.97;;;0.80;;
64633;SDS011;51043;52.406;9.690;2023-10-31T09:51:51;1.10;;;0.80;;
64633;SDS011;51043;52.406;9.690;2023-10-31T09:54:19;1.87;;;0.90;;
64633;SDS011;51043;52.406;9.690;2023-10-31T09:56:49;1.10;;;1.00;;
64633;SDS011;51043;52.406;9.690;2023-10-31T09:59:18;1.00;;;0.90;;
64633;SDS011;51043;52.406;9.690;2023-10-31T10:01:47;0.80;;;0.80;;
64633;SDS011;51043;52.406;9.690;2023-10-31T10:04:16;2.57;;;1.10;;
64633;SDS011;51043;52.406;9.690;2023-10-31T10:06:49;1.23;;;0.90;;
64633;SDS011;51043;52.406;9.690;2023-10-31T10:09:19;1.10;;;1.00;;
64633;SDS011;51043;52.406;9.690;2023-10-31T10:11:49;2.33;;;1.20;;
64633;SDS011;51043;52.406;9.690;2023-10-31T10:14:22;1.07;;;0.97;;
64633;SDS011;51043;52.406;9.690;2023-10-31T10:16:51;1.67;;;1.00;;
64633;SDS011;51043;52.406;9.690;2023-10-31T10:19:24;1.47;;;0.90;;
64633;SDS011;51043;52.406;9.690;2023-10-31T10:21:53;0.50;;;0.50;;
64633;SDS011;51043;52.406;9.690;2023-10-31T10:24:23;1.97;;;0.70;;
64633;SDS011;51043;52.406;9.690;2023-10-31T10:26:52;0.70;;;0.70;;
64633;SDS011;51043;52.406;9.690;2023-10-31T10:29:20;0.60;;;0.60;;
64633;SDS011;51043;52.406;9.690;2023-10-31T10:31:56;0.80;;;0.80;;
64633;SDS011;51043;52.406;9.690;2023-10-31T10:34:50;0.70;;;0.70;;
64633;SDS011;51043;52.406;9.690;2023-10-31T10:37:18;1.90;;;0.90;;
64633;SDS011;51043;52.406;9.690;2023-10-31T10:39:47;0.60;;;0.60;;
64633;SDS011;51043;52.406;9.690;2023-10-31T10:42:16;1.97;;;0.73;;
64633;SDS011;51043;52.406;9.690;2023-10-31T10:44:47;1.47;;;0.70;;
64633;SDS011;51043;52.406;9.690;2023-10-31T10:47:21;1.10;;;1.00;;
64633;SDS011;51043;52.406;9.690;2023-10-31T10:52:53;2.23;;;0.90;;
64633;SDS011;51043;52.406;9.690;2023-10-31T10:55:39;1.57;;;1.10;;
64633;SDS011;51043;52.406;9.690;2023-10-31T10:58:13;1.23;;;0.57;;
64633;SDS011;51043;52.406;9.690;2023-10-31T11:00:50;1.13;;;0.80;;
64633;SDS011;51043;52.406;9.690;2023-10-31T11:03:21;5.10;;;0.90;;
64633;SDS011;51043;52.406;9.690;2023-10-31T11:05:56;2.20;;;1.00;;
64633;SDS011;51043;52.406;9.690;2023-10-31T11:08:25;1.77;;;1.03;;
64633;SDS011;51043;52.406;9.690;2023-10-31T11:10:55;0.93;;;0.83;;
64633;SDS011;51043;52.406;9.690;2023-10-31T11:13:27;4.03;;;1.07;;
64633;SDS011;51043;52.406;9.690;2023-10-31T11:15:57;1.23;;;1.00;;
64633;SDS011;51043;52.406;9.690;2023-10-31T11:18:31;1.57;;;1.10;;
64633;SDS011;51043;52.406;9.690;2023-10-31T11:21:02;1.40;;;1.10;;
64633;SDS011;51043;52.406;9.690;2023-10-31T11:23:31;4.33;;;1.60;;
64633;SDS011;51043;52.406;9.690;2023-10-31T11:26:00;1.37;;;1.03;;
64633;SDS011;51043;52.406;9.690;2023-10-31T11:28:29;2.33;;;1.17;;
64633;SDS011;51043;52.406;9.690;2023-10-31T11:31:01;5.73;;;1.37;;
64633;SDS011;51043;52.406;9.690;2023-10-31T11:33:30;3.07;;;1.17;;
64633;SDS011;51043;52.406;9.690;2023-10-31T11:36:00;3.10;;;1.30;;
64633;SDS011;51043;52.406;9.690;2023-10-31T11:38:31;1.17;;;1.00;;
64633;SDS011;51043;52.406;9.690;2023-10-31T11:41:03;4.43;;;1.30;;
64633;SDS011;51043;52.406;9.690;2023-10-31T11:43:36;1.47;;;1.17;;
64633;SDS011;51043;52.406;9.690;2023-10-31T11:46:19;3.27;;;1.50;;
64633;SDS011;51043;52.406;9.690;2023-10-31T11:48:49;1.90;;;0.77;;
64633;SDS011;51043;52.406;9.690;2023-10-31T11:51:20;1.70;;;1.10;;
64633;SDS011;51043;52.406;9.690;2023-10-31T11:53:48;1.20;;;0.97;;
64633;SDS011;51043;52.406;9.690;2023-10-31T11:56:21;1.30;;;1.17;;
64633;SDS011;51043;52.406;9.690;2023-10-31T11:58:56;2.83;;;1.20;;
64633;SDS011;51043;52.406;9.690;2023-10-31T12:01:25;2.30;;;1.20;;
64633;SDS011;51043;52.406;9.690;2023-10-31T12:03:54;1.47;;;1.20;;
64633;SDS011;51043;52.406;9.690;2023-10-31T12:06:28;2.00;;;1.10;;
64633;SDS011;51043;52.406;9.690;2023-10-31T12:08:59;1.27;;;1.17;;
64633;SDS011;51043;52.406;9.690;2023-10-31T12:11:28;2.57;;;1.13;;
64633;SDS011;51043;52.406;9.690;2023-10-31T12:13:57;1.50;;;1.10;;
64633;SDS011;51043;52.406;9.690;2023-10-31T12:16:28;3.00;;;1.40;;
64633;SDS011;51043;52.406;9.690;2023-10-31T12:18:57;4.07;;;1.30;;
64633;SDS011;51043;52.406;9.690;2023-10-31T12:21:37;1.27;;;1.17;;
64633;SDS011;51043;52.406;9.690;2023-10-31T12:24:06;3.43;;;1.60;;
64633;SDS011;51043;52.406;9.690;2023-10-31T12:26:36;3.67;;;1.20;;
64633;SDS011;51043;52.406;9.690;2023-10-31T12:29:08;1.40;;;1.30;;
64633;SDS011;51043;52.406;9.690;2023-10-31T12:34:27;1.33;;;0.93;;
64633;SDS011;51043;52.406;9.690;2023-10-31T12:36:59;2.43;;;1.37;;
64633;SDS011;51043;52.406;9.690;2023-10-31T12:39:31;2.80;;;1.67;;
64633;SDS011;51043;52.406;9.690;2023-10-31T12:42:00;1.30;;;1.20;;
64633;SDS011;51043;52.406;9.690;2023-10-31T12:44:31;3.67;;;1.50;;
64633;SDS011;51043;52.406;9.690;2023-10-31T12:47:01;3.40;;;1.37;;
64633;SDS011;51043;52.406;9.690;2023-10-31T12:49:30;2.47;;;1.60;;
64633;SDS011;51043;52.406;9.690;2023-10-31T12:52:01;2.50;;;1.80;;
64633;SDS011;51043;52.406;9.690;2023-10-31T12:54:31;2.80;;;1.93;;
64633;SDS011;51043;52.406;9.690;2023-10-31T12:57:00;2.53;;;1.40;;
64633;SDS011;51043;52.406;9.690;2023-10-31T12:59:31;1.97;;;1.40;;
64633;SDS011;51043;52.406;9.690;2023-10-31T13:02:00;6.27;;;2.23;;
64633;SDS011;51043;52.406;9.690;2023-10-31T13:04:30;3.70;;;2.00;;
64633;SDS011;51043;52.406;9.690;2023-10-31T13:07:03;6.53;;;2.00;;
64633;SDS011;51043;52.406;9.690;2023-10-31T13:09:34;2.10;;;1.93;;
64633;SDS011;51043;52.406;9.690;2023-10-31T13:12:05;5.53;;;2.03;;
64633;SDS011;51043;52.406;9.690;2023-10-31T13:14:35;2.97;;;2.10;;
64633;SDS011;51043;52.406;9.690;2023-10-31T13:17:05;3.40;;;2.10;;
64633;SDS011;51043;52.406;9.690;2023-10-31T13:19:33;2.97;;;1.77;;
64633;SDS011;51043;52.406;9.690;2023-10-31T13:22:03;1.90;;;1.50;;
64633;SDS011;51043;52.406;9.690;2023-10-31T13:24:31;3.00;;;2.30;;
64633;SDS011;51043;52.406;9.690;2023-10-31T13:27:01;3.67;;;2.17;;
64633;SDS011;51043;52.406;9.690;2023-10-31T13:29:30;2.57;;;2.10;;
64633;SDS011;51043;52.406;9.690;2023-10-31T13:32:02;3.27;;;2.57;;
64633;SDS011;51043;52.406;9.690;2023-10-31T13:34:32;3.70;;;2.43;;
64633;SDS011;51043;52.406;9.690;2023-10-31T13:37:06;3.07;;;2.50;;
64633;SDS011;51043;52.406;9.690;2023-10-31T13:39:56;2.47;;;1.87;;
64633;SDS011;51043;52.406;9.690;2023-10-31T13:42:24;1.83;;;1.70;;
64633;SDS011;51043;52.406;9.690;2023-10-31T13:44:54;4.20;;;1.27;;
64633;SDS011;51043;52.406;9.690;2023-10-31T13:47:23;2.87;;;1.83;;
64633;SDS011;51043;52.406;9.690;2023-10-31T13:49:51;5.13;;;1.83;;
64633;SDS011;51043;52.406;9.690;2023-10-31T13:52:21;3.57;;;1.60;;
64633;SDS011;51043;52.406;9.690;2023-10-31T13:54:50;2.20;;;1.50;;
64633;SDS011;51043;52.406;9.690;2023-10-31T13:57:18;2.80;;;1.70;;
64633;SDS011;51043;52.406;9.690;2023-10-31T13:59:49;3.23;;;1.30;;
64633;SDS011;51043;52.406;9.690;2023-10-31T14:02:19;3.67;;;1.60;;
64633;SDS011;51043;52.406;9.690;2023-10-31T14:04:48;2.07;;;1.50;;
64633;SDS011;51043;52.406;9.690;2023-10-31T14:07:20;1.97;;;1.20;;
64633;SDS011;51043;52.406;9.690;2023-10-31T14:09:51;2.27;;;1.53;;
64633;SDS011;51043;52.406;9.690;2023-10-31T14:12:23;3.10;;;1.80;;
64633;SDS011;51043;52.406;9.690;2023-10-31T14:14:51;1.57;;;1.40;;
64633;SDS011;51043;52.406;9.690;2023-10-31T14:17:19;2.73;;;1.60;;
64633;SDS011;51043;52.406;9.690;2023-10-31T14:19:49;1.63;;;1.53;;
64633;SDS011;51043;52.406;9.690;2023-10-31T14:22:20;3.07;;;1.87;;
64633;SDS011;51043;52.406;9.690;2023-10-31T14:24:53;6.70;;;2.27;;
64633;SDS011;51043;52.406;9.690;2023-10-31T14:27:22;2.57;;;2.20;;
64633;SDS011;51043;52.406;9.690;2023-10-31T14:29:51;5.03;;;2.30;;
64633;SDS011;51043;52.406;9.690;2023-10-31T14:32:22;3.40;;;2.23;;
64633;SDS011;51043;52.406;9.690;2023-10-31T14:34:51;5.60;;;2.30;;
64633;SDS011;51043;52.406;9.690;2023-10-31T14:37:23;4.27;;;2.33;;
64633;SDS011;51043;52.406;9.690;2023-10-31T14:39:54;4.77;;;2.50;;
64633;SDS011;51043;52.406;9.690;2023-10-31T14:42:23;4.60;;;2.80;;
64633;SDS011;51043;52.406;9.690;2023-10-31T14:44:51;4.63;;;3.00;;
64633;SDS011;51043;52.406;9.690;2023-10-31T14:47:29;4.53;;;3.00;;
64633;SDS011;51043;52.406;9.690;2023-10-31T14:49:57;3.83;;;2.47;;
64633;SDS011;51043;52.406;9.690;2023-10-31T14:52:26;5.93;;;2.97;;
64633;SDS011;51043;52.406;9.690;2023-10-31T14:54:55;6.33;;;2.40;;
64633;SDS011;51043;52.406;9.690;2023-10-31T14:57:24;4.50;;;2.73;;
64633;SDS011;51043;52.406;9.690;2023-10-31T14:59:54;3.70;;;2.57;;
64633;SDS011;51043;52.406;9.690;2023-10-31T15:02:23;3.93;;;2.13;;
64633;SDS011;51043;52.406;9.690;2023-10-31T15:04:51;2.00;;;1.27;;
64633;SDS011;51043;52.406;9.690;2023-10-31T15:07:20;1.00;;;1.00;;
64633;SDS011;51043;52.406;9.690;2023-10-31T15:09:50;1.67;;;1.20;;
64633;SDS011;51043;52.406;9.690;2023-10-31T15:12:21;1.40;;;1.20;;